Time;durP1;ratioP1;P1;durP2;ratioP2;P2;SDS_P1;SDS_P2;PMS_P1;PMS_P2;Temp;Humidity;BMP_temperature;BMP_pressure;BME280_temperature;BME280_humidity;BME280_pressure;Samples;Min_cycle;Max_cycle;Signal;HPM_P1;HPM_P2
2022/02/08 00:03:02;;;;;;;4.13;2.50;;;5.00;84.50;;;;;;9969409;28;20081;-62
2022/02/08 00:07:55;;;;;;;6.25;2.50;;;5.10;84.50;;;;;;9965781;28;20104;-61
2022/02/08 00:12:46;;;;;;;6.35;2.58;;;5.00;84.40;;;;;;9972285;28;20085;-62
2022/02/08 00:17:37;;;;;;;5.88;2.70;;;4.90;84.80;;;;;;9976440;28;20064;-61
2022/02/08 00:22:27;;;;;;;6.78;2.50;;;4.90;84.70;;;;;;9966497;28;20544;-61
2022/02/08 00:27:18;;;;;;;8.68;2.78;;;4.80;84.90;;;;;;9968278;28;20022;-61
2022/02/08 00:32:09;;;;;;;5.97;2.95;;;4.80;84.90;;;;;;9970193;28;20140;-61
2022/02/08 00:37:00;;;;;;;6.97;2.65;;;4.80;84.90;;;;;;9978848;28;20038;-61
2022/02/08 00:41:50;;;;;;;4.07;2.65;;;4.70;85.00;;;;;;9976596;28;20036;-63
2022/02/08 00:46:51;;;;;;;5.65;3.05;;;4.80;85.00;;;;;;9972608;28;20023;-60
2022/02/08 00:51:52;;;;;;;6.57;2.60;;;4.70;85.10;;;;;;9964835;28;20112;-61
2022/02/08 00:56:44;;;;;;;3.50;2.55;;;4.70;85.00;;;;;;9973412;28;20121;-61
2022/02/08 01:01:38;;;;;;;4.80;2.72;;;4.70;85.10;;;;;;9978797;28;20117;-61
2022/02/08 01:06:28;;;;;;;5.78;2.47;;;4.70;85.20;;;;;;9972398;28;20030;-61
2022/02/08 01:11:21;;;;;;;5.43;2.75;;;4.70;85.30;;;;;;9972208;28;20112;-61
2022/02/08 01:16:12;;;;;;;5.47;2.55;;;4.60;85.20;;;;;;9970273;28;20034;-61
2022/02/08 01:21:03;;;;;;;7.70;2.50;;;4.70;85.30;;;;;;9966537;28;20053;-61
2022/02/08 01:25:58;;;;;;;7.15;2.90;;;4.70;85.40;;;;;;9973430;28;20546;-61
2022/02/08 01:36:23;;;;;;;5.22;1.98;;;4.60;85.50;;;;;;9975365;28;20042;-62
2022/02/08 01:50:46;;;;;;;4.40;2.13;;;4.40;85.50;;;;;;9964043;28;20484;-63
2022/02/08 01:55:38;;;;;;;5.68;1.95;;;4.30;85.70;;;;;;9974902;28;20093;-63
2022/02/08 02:00:29;;;;;;;2.83;1.80;;;4.40;85.70;;;;;;9985530;28;20394;-61
2022/02/08 02:05:20;;;;;;;4.10;1.85;;;4.30;85.80;;;;;;9971886;28;20031;-62
2022/02/08 02:10:11;;;;;;;3.35;1.65;;;4.30;85.80;;;;;;9964574;28;20033;-62
2022/02/08 02:15:05;;;;;;;3.65;2.08;;;4.20;85.90;;;;;;9965217;28;21206;-63
2022/02/08 02:19:55;;;;;;;4.03;1.90;;;4.30;85.90;;;;;;9979744;28;20014;-64
2022/02/08 02:24:46;;;;;;;3.15;2.08;;;4.30;85.90;;;;;;9967300;28;20511;-62
2022/02/08 02:29:37;;;;;;;4.50;1.83;;;4.30;86.10;;;;;;9976977;28;20046;-63
2022/02/08 02:34:28;;;;;;;5.50;1.65;;;4.40;86.20;;;;;;9972447;28;20698;-62
2022/02/08 02:39:24;;;;;;;3.83;1.80;;;4.50;86.20;;;;;;9969789;28;20037;-63
2022/02/08 02:44:18;;;;;;;6.78;1.92;;;4.50;86.40;;;;;;9957186;28;20468;-63
2022/02/08 02:49:08;;;;;;;4.40;1.85;;;4.50;86.50;;;;;;9969903;28;20538;-63
2022/02/08 02:54:00;;;;;;;3.97;1.75;;;4.50;86.50;;;;;;9955786;28;20039;-64
2022/02/08 02:58:58;;;;;;;3.92;1.98;;;4.50;86.70;;;;;;9964871;28;20034;-66
2022/02/08 03:18:58;;;;;;;2.67;1.58;;;4.70;86.70;;;;;;9971561;28;20689;-64
2022/02/08 03:23:49;;;;;;;9.55;2.00;;;4.70;86.80;;;;;;9974466;28;20064;-64
2022/02/08 03:28:39;;;;;;;3.20;1.45;;;4.70;86.60;;;;;;9960474;28;20497;-64
2022/02/08 03:33:30;;;;;;;2.45;1.55;;;4.70;86.80;;;;;;9957362;28;20578;-64
2022/02/08 03:38:39;;;;;;;6.35;2.13;;;4.90;86.70;;;;;;9974149;28;20038;-65
2022/02/08 03:43:32;;;;;;;2.00;1.20;;;4.80;86.50;;;;;;9954369;28;20034;-64
2022/02/08 03:48:26;;;;;;;3.47;1.50;;;4.80;86.50;;;;;;9964127;28;20410;-65
2022/02/08 03:53:17;;;;;;;2.90;1.45;;;4.70;86.70;;;;;;9966714;28;20101;-66
2022/02/08 03:58:08;;;;;;;3.83;1.60;;;4.80;86.80;;;;;;9965194;28;20019;-66
2022/02/08 04:02:59;;;;;;;4.53;1.60;;;4.80;86.60;;;;;;9972084;28;20117;-64
2022/02/08 04:08:00;;;;;;;5.78;1.90;;;4.80;87.20;;;;;;9957639;28;20018;-64
2022/02/08 04:33:07;;;;;;;4.32;1.42;;;4.90;86.60;;;;;;9965855;28;20086;-66
2022/02/08 04:43:45;;;;;;;2.42;1.50;;;4.80;86.50;;;;;;9961559;28;20077;-66
2022/02/08 04:48:32;;;;;;;2.58;1.38;;;4.90;86.50;;;;;;9959483;28;20134;-65
2022/02/08 04:53:33;;;;;;;3.42;1.33;;;4.90;86.50;;;;;;9969107;28;20633;-65
2022/02/08 05:44:24;;;;;;;2.80;1.23;;;4.70;86.70;;;;;;9968480;28;20070;-68
2022/02/08 05:49:24;;;;;;;2.63;1.48;;;4.70;86.70;;;;;;9972074;28;20026;-66
2022/02/08 05:54:14;;;;;;;6.50;1.27;;;4.70;86.80;;;;;;9980433;28;20132;-66
2022/02/08 05:59:07;;;;;;;2.72;1.10;;;4.70;86.80;;;;;;9977228;28;20042;-69
2022/02/08 06:03:59;;;;;;;3.05;1.17;;;4.70;86.70;;;;;;9964718;28;20405;-66
2022/02/08 06:08:50;;;;;;;6.10;2.55;;;4.80;86.80;;;;;;9976979;28;20019;-66
2022/02/08 06:13:42;;;;;;;2.78;1.17;;;4.90;86.70;;;;;;9977503;28;20042;-65
2022/02/08 06:18:32;;;;;;;1.88;1.10;;;4.80;86.70;;;;;;9966255;28;20178;-65
2022/02/08 06:23:24;;;;;;;5.90;1.42;;;4.90;86.60;;;;;;9970999;28;20316;-65
2022/02/08 06:28:16;;;;;;;3.08;1.40;;;4.80;86.80;;;;;;9977030;28;20054;-67
2022/02/08 06:33:07;;;;;;;1.85;1.15;;;4.70;87.00;;;;;;9966518;28;20517;-67
2022/02/08 06:37:59;;;;;;;5.13;1.65;;;4.80;87.00;;;;;;9966522;28;20057;-67
2022/02/08 06:42:50;;;;;;;3.10;1.65;;;4.80;86.90;;;;;;9963670;28;20030;-69
2022/02/08 06:47:42;;;;;;;2.85;1.27;;;4.80;86.80;;;;;;9959203;28;20045;-67
2022/02/08 06:52:33;;;;;;;3.45;1.63;;;4.90;86.70;;;;;;9965144;28;20089;-68
2022/02/08 06:57:25;;;;;;;3.75;1.33;;;5.00;86.70;;;;;;9980686;28;20515;-68
2022/02/08 07:02:16;;;;;;;2.03;1.05;;;5.10;86.60;;;;;;9958999;28;20022;-66
2022/02/08 07:07:10;;;;;;;4.63;1.23;;;5.00;86.70;;;;;;9969378;28;20278;-67
2022/02/08 07:12:00;;;;;;;10.05;2.80;;;5.10;86.60;;;;;;9965819;28;20023;-69
2022/02/08 07:16:51;;;;;;;4.97;1.55;;;5.10;86.60;;;;;;9974148;28;20046;-67
2022/02/08 07:21:44;;;;;;;4.32;1.45;;;5.10;86.70;;;;;;9972959;28;20025;-68
2022/02/08 07:26:34;;;;;;;9.32;3.13;;;5.20;86.50;;;;;;9959641;28;20061;-66
2022/02/08 07:31:38;;;;;;;3.08;1.30;;;5.20;86.40;;;;;;9951680;28;20146;-67
2022/02/08 07:41:54;;;;;;;5.83;1.93;;;5.20;86.70;;;;;;9893366;28;20149;-70
2022/02/08 07:46:46;;;;;;;2.72;1.42;;;5.20;86.70;;;;;;9956602;28;20467;-74
2022/02/08 07:51:39;;;;;;;3.10;1.17;;;5.20;86.60;;;;;;9959904;28;20102;-69
2022/02/08 07:56:29;;;;;;;4.30;1.75;;;5.30;86.60;;;;;;9963312;28;20034;-70
2022/02/08 08:01:20;;;;;;;5.88;1.33;;;5.30;86.70;;;;;;9960689;28;20023;-70
2022/02/08 08:06:13;;;;;;;3.83;1.13;;;5.40;86.60;;;;;;9965668;28;20042;-70
2022/02/08 08:11:09;;;;;;;3.63;1.60;;;5.50;86.50;;;;;;9957533;28;20058;-68
2022/02/08 08:16:12;;;;;;;6.30;1.85;;;5.50;86.50;;;;;;9961507;28;20575;-68
2022/02/08 08:21:02;;;;;;;4.50;1.60;;;5.60;86.30;;;;;;9963335;28;20030;-68
2022/02/08 08:25:53;;;;;;;2.53;1.60;;;5.70;86.20;;;;;;9957959;28;20034;-68
2022/02/08 08:30:44;;;;;;;5.82;1.38;;;5.80;86.10;;;;;;9978059;28;20165;-67
2022/02/08 08:35:35;;;;;;;3.78;1.73;;;5.90;86.10;;;;;;9967538;28;20427;-69
2022/02/08 08:40:42;;;;;;;5.72;1.27;;;5.90;85.90;;;;;;9951944;28;20397;-69
2022/02/08 08:50:52;;;;;;;7.82;1.95;;;5.80;85.80;;;;;;9964321;28;20081;-69
2022/02/08 08:55:42;;;;;;;2.17;1.00;;;5.80;85.70;;;;;;9970494;28;20058;-70
2022/02/08 09:00:33;;;;;;;5.20;1.30;;;5.80;85.70;;;;;;9971087;28;20062;-72
2022/02/08 09:05:24;;;;;;;1.92;1.02;;;6.00;85.50;;;;;;9942094;28;20058;-73
2022/02/08 09:10:19;;;;;;;5.57;1.30;;;6.20;85.20;;;;;;9968449;28;20515;-69
2022/02/08 09:30:29;;;;;;;5.43;1.60;;;6.60;84.90;;;;;;9968116;28;20111;-71
2022/02/08 09:35:21;;;;;;;2.50;1.25;;;6.70;84.60;;;;;;9968123;28;20096;-70
2022/02/08 09:40:13;;;;;;;1.27;0.85;;;6.80;84.50;;;;;;9957027;28;20058;-70
2022/02/08 09:45:06;;;;;;;3.22;1.33;;;7.00;84.50;;;;;;9945553;28;20038;-70
2022/02/08 09:50:09;;;;;;;5.50;1.17;;;7.20;84.20;;;;;;9975688;28;20082;-70
2022/02/08 09:55:00;;;;;;;3.75;1.02;;;7.40;83.90;;;;;;9971573;28;20034;-69
2022/02/08 09:59:51;;;;;;;1.67;0.90;;;7.50;83.90;;;;;;9960695;28;20022;-69
2022/02/08 10:04:42;;;;;;;4.22;1.40;;;7.80;83.80;;;;;;9959058;28;20331;-73
2022/02/08 10:09:33;;;;;;;2.28;1.20;;;8.40;83.80;;;;;;9955522;28;20036;-72
2022/02/08 10:14:40;;;;;;;4.38;1.90;;;8.50;83.30;;;;;;9960782;28;20050;-71
2022/02/08 10:24:25;;;;;;;5.05;1.23;;;8.80;83.70;;;;;;9962438;28;20039;-71
2022/02/08 10:39:33;;;;;;;4.80;1.63;;;9.20;83.00;;;;;;9965746;28;20100;-65
2022/02/08 10:44:33;;;;;;;3.65;1.30;;;9.30;82.60;;;;;;9965300;28;20558;-68
2022/02/08 10:49:23;;;;;;;3.83;1.30;;;9.40;82.90;;;;;;9968749;28;20046;-71
2022/02/08 10:54:21;;;;;;;4.30;1.27;;;9.30;82.80;;;;;;9962461;28;20467;-71
2022/02/08 10:59:17;;;;;;;2.65;1.25;;;9.40;82.60;;;;;;9963614;28;20093;-72
2022/02/08 11:04:16;;;;;;;5.30;1.40;;;9.50;82.60;;;;;;9948944;28;20121;-66
2022/02/08 11:24:27;;;;;;;7.25;1.58;;;9.60;81.90;;;;;;9968508;28;20039;-70
2022/02/08 11:29:55;;;;;;;4.35;1.15;;;9.70;81.70;;;;;;9963371;28;20046;-65
2022/02/08 11:40:23;;;;;;;6.35;1.95;;;10.00;81.30;;;;;;9963892;28;20081;-69
2022/02/08 11:45:33;;;;;;;8.77;1.83;;;10.10;81.10;;;;;;9971296;28;20041;-72
2022/02/08 11:51:02;;;;;;;1.40;1.10;;;10.10;80.80;;;;;;9956295;28;20037;-71
2022/02/08 12:01:28;;;;;;;7.97;1.40;;;10.60;80.20;;;;;;9962640;28;20041;-66
2022/02/08 12:32:01;;;;;;;6.28;1.65;;;10.90;79.30;;;;;;9989533;28;20077;-67
2022/02/08 14:09:18;;;;;;;4.85;1.98;;;12.80;76.10;;;;;;9957324;28;20082;-72
2022/02/08 14:14:32;;;;;;;;;;;12.60;76.40;;;;;;9951476;28;20095;-68
2022/02/08 14:19:45;;;;;;;4.47;1.33;;;12.60;76.10;;;;;;9963177;28;20257;-71
2022/02/08 14:29:52;;;;;;;5.70;1.65;;;12.20;76.80;;;;;;9961926;28;20056;-68
2022/02/08 15:05:59;;;;;;;4.93;1.63;;;11.40;77.40;;;;;;9941748;28;20663;-71
2022/02/08 15:10:53;;;;;;;4.50;1.70;;;11.30;77.60;;;;;;9956442;28;20124;-69
2022/02/08 15:20:44;;;;;;;4.55;1.95;;;11.20;78.20;;;;;;9964004;28;20033;-71
2022/02/08 15:25:35;;;;;;;6.22;1.67;;;11.20;78.60;;;;;;9969056;28;20270;-71
2022/02/08 15:30:25;;;;;;;4.13;1.65;;;11.30;78.80;;;;;;9957562;28;20054;-72
2022/02/08 15:35:16;;;;;;;8.45;2.47;;;11.30;79.10;;;;;;9952209;28;20053;-75
2022/02/08 15:40:09;;;;;;;4.85;2.05;;;11.30;79.30;;;;;;9970852;28;20030;-71
2022/02/08 15:45:07;;;;;;;6.00;2.13;;;11.20;79.70;;;;;;9965495;28;20241;-69
2022/02/08 15:50:05;;;;;;;7.72;2.35;;;11.10;80.20;;;;;;9962256;28;20417;-71
2022/02/08 15:54:58;;;;;;;9.63;2.60;;;11.00;80.30;;;;;;9962261;28;20043;-68
2022/02/08 16:10:29;;;;;;;5.63;1.77;;;10.80;81.10;;;;;;9945897;28;20076;-82
2022/02/08 16:15:34;;;;;;;3.03;1.88;;;10.80;81.30;;;;;;10044601;28;20033;-76
2022/02/08 16:20:40;;;;;;;3.70;1.58;;;10.80;81.60;;;;;;10029735;28;20120;-73
2022/02/08 16:56:12;;;;;;;7.88;1.63;;;10.70;82.60;;;;;;10035366;28;20610;-66
2022/02/08 17:01:11;;;;;;;4.68;1.98;;;10.60;82.90;;;;;;10030497;28;20042;-65
2022/02/08 17:06:01;;;;;;;3.70;2.20;;;10.60;83.10;;;;;;10020706;28;20041;-69
2022/02/08 17:10:56;;;;;;;3.78;1.48;;;10.70;83.10;;;;;;10034558;28;20028;-67
2022/02/08 17:16:04;;;;;;;5.97;2.58;;;10.60;83.40;;;;;;10041243;28;20042;-69
2022/02/08 17:46:46;;;;;;;5.47;2.30;;;10.60;84.10;;;;;;10034892;28;20283;-68
2022/02/08 17:51:37;;;;;;;6.60;2.70;;;10.50;84.30;;;;;;10033775;28;20455;-68
2022/02/08 17:56:28;;;;;;;5.65;2.33;;;10.50;84.50;;;;;;10031976;28;20037;-67
2022/02/08 18:01:19;;;;;;;7.00;2.50;;;10.30;84.90;;;;;;10043425;28;20136;-71
2022/02/08 18:06:10;;;;;;;5.15;2.42;;;10.30;85.30;;;;;;10044907;28;20029;-68
2022/02/08 18:11:01;;;;;;;10.82;3.78;;;10.20;86.00;;;;;;10044570;28;20570;-71
2022/02/08 18:15:52;;;;;;;7.72;3.90;;;10.00;86.40;;;;;;10038615;28;20030;-71
2022/02/08 18:20:48;;;;;;;4.82;2.47;;;9.90;87.30;;;;;;10030374;28;20025;-69
2022/02/08 19:12:16;;;;;;;5.95;2.90;;;9.40;91.10;;;;;;10035295;28;20515;-66
2022/02/08 19:22:04;;;;;;;4.07;2.58;;;9.40;91.50;;;;;;10029203;28;20455;-67
2022/02/08 19:26:58;;;;;;;5.63;2.72;;;9.40;91.70;;;;;;10024920;28;20061;-69
2022/02/08 19:31:49;;;;;;;5.72;3.13;;;9.50;91.80;;;;;;10038225;28;20566;-67
2022/02/08 19:36:43;;;;;;;6.88;2.90;;;9.50;91.90;;;;;;10032401;28;20511;-67
2022/02/08 19:41:35;;;;;;;8.05;3.00;;;9.50;92.00;;;;;;10027733;28;20500;-68
2022/02/08 19:46:26;;;;;;;5.72;2.92;;;9.50;92.10;;;;;;10033798;28;20041;-67
2022/02/08 19:51:17;;;;;;;6.97;3.33;;;9.60;92.10;;;;;;10027886;28;20580;-69
2022/02/08 20:01:08;;;;;;;3.30;2.88;;;9.70;92.10;;;;;;10038158;28;20519;-67
2022/02/08 20:05:59;;;;;;;5.95;2.95;;;9.70;92.20;;;;;;10039253;28;20033;-67
2022/02/08 20:10:50;;;;;;;4.60;2.58;;;9.60;92.20;;;;;;10033694;28;20036;-67
2022/02/08 20:15:40;;;;;;;6.28;2.80;;;9.60;92.20;;;;;;10031756;28;20049;-67
2022/02/08 20:20:33;;;;;;;3.40;1.98;;;9.60;92.30;;;;;;10027090;28;20108;-68
2022/02/08 20:25:25;;;;;;;6.35;3.25;;;9.60;92.40;;;;;;10039425;28;20365;-69
2022/02/08 20:30:20;;;;;;;4.00;2.83;;;9.60;92.20;;;;;;10030963;28;20025;-68
2022/02/08 20:35:12;;;;;;;3.45;2.15;;;9.60;92.20;;;;;;10033586;28;20396;-68
2022/02/08 20:40:03;;;;;;;5.38;2.50;;;9.60;92.20;;;;;;10032853;28;20740;-67
2022/02/08 20:44:53;;;;;;;5.18;2.25;;;9.60;92.30;;;;;;10030847;28;20173;-70
2022/02/08 20:49:45;;;;;;;2.78;1.80;;;9.70;92.50;;;;;;10038380;28;20620;-68
2022/02/08 20:54:39;;;;;;;2.38;1.73;;;9.70;92.10;;;;;;10044315;28;20254;-69
2022/02/08 20:59:30;;;;;;;2.83;1.90;;;9.70;92.20;;;;;;10039799;28;20029;-68
2022/02/08 21:09:17;;;;;;;4.07;1.95;;;9.70;92.30;;;;;;10045498;28;20115;-68
2022/02/08 21:14:11;;;;;;;5.28;1.88;;;9.70;92.20;;;;;;10035454;28;20108;-67
2022/02/08 21:19:03;;;;;;;2.90;2.00;;;9.80;92.20;;;;;;10035729;28;20029;-67
2022/02/08 21:23:55;;;;;;;3.30;1.88;;;9.80;92.20;;;;;;10031585;28;20037;-68
2022/02/08 21:53:59;;;;;;;6.07;3.05;;;9.60;92.40;;;;;;10024478;28;20046;-67
2022/02/08 21:58:50;;;;;;;7.93;3.67;;;9.60;92.40;;;;;;10026636;28;20527;-71
2022/02/08 22:03:41;;;;;;;6.20;3.72;;;9.60;92.70;;;;;;10041734;28;20120;-67
2022/02/08 22:19:06;;;;;;;7.28;3.28;;;9.60;92.40;;;;;;10043630;28;20084;-67
2022/02/08 22:23:50;;;;;;;7.40;3.78;;;9.60;92.50;;;;;;10032249;28;20041;-68
2022/02/08 22:33:48;;;;;;;7.47;3.47;;;9.50;92.50;;;;;;10041277;28;20037;-69
2022/02/08 22:38:46;;;;;;;10.77;3.85;;;9.50;92.50;;;;;;10044911;28;20034;-67
2022/02/08 22:43:44;;;;;;;7.63;3.95;;;9.60;92.50;;;;;;10042648;28;20301;-70
2022/02/08 22:48:37;;;;;;;6.10;3.55;;;9.50;92.40;;;;;;10025630;28;20397;-66
2022/02/08 22:53:28;;;;;;;6.85;3.33;;;9.60;92.50;;;;;;10035865;28;20026;-67
2022/02/08 22:58:19;;;;;;;6.35;3.60;;;9.50;92.60;;;;;;10033226;28;20034;-67
2022/02/08 23:03:10;;;;;;;5.85;3.30;;;9.40;92.70;;;;;;10020235;28;20353;-68
2022/02/08 23:08:01;;;;;;;4.25;3.05;;;9.40;92.70;;;;;;10038444;28;20025;-68
2022/02/08 23:13:33;;;;;;;7.00;3.97;;;9.50;92.60;;;;;;10032617;28;20047;-69
2022/02/08 23:38:46;;;;;;;6.28;2.70;;;9.40;92.60;;;;;;10039291;28;20558;-67
2022/02/08 23:43:36;;;;;;;7.68;3.58;;;9.30;92.70;;;;;;10032528;28;20032;-67
2022/02/08 23:48:39;;;;;;;5.20;3.35;;;9.20;92.80;;;;;;10035232;28;20038;-68
2022/02/08 23:53:58;;;;;;;5.00;3.10;;;9.20;92.70;;;;;;10029016;28;20459;-67
2022/02/08 23:58:44;;;;;;;4.38;2.60;;;9.30;92.70;;;;;;10027833;28;20065;-69
